createdAt,value
2023-02-03T00:00:43.296Z,102623.56
2023-02-03T00:03:10.050Z,102626.50
2023-02-03T00:05:37.511Z,102628.94
2023-02-03T00:08:06.458Z,102620.50
2023-02-03T00:10:35.742Z,102619.06
2023-02-03T00:13:02.713Z,102628.94
2023-02-03T00:15:32.613Z,102621.66
2023-02-03T00:17:59.831Z,102613.03
2023-02-03T00:20:28.026Z,102622.78
2023-02-03T00:22:55.240Z,102617.59
2023-02-03T00:25:21.994Z,102631.19
2023-02-03T00:27:51.875Z,102637.56
2023-02-03T00:30:19.020Z,102634.97
2023-02-03T00:32:45.633Z,102629.44
2023-02-03T00:35:12.248Z,102623.13
2023-02-03T00:37:39.220Z,102621.66
2023-02-03T00:40:06.358Z,102623.28
2023-02-03T00:42:35.559Z,102626.03
2023-02-03T00:45:03.032Z,102621.00
2023-02-03T00:47:29.849Z,102616.53
2023-02-03T00:49:56.895Z,102628.34
2023-02-03T00:52:23.726Z,102621.66
2023-02-03T00:54:50.407Z,102618.13
2023-02-03T00:57:17.288Z,102643.75
2023-02-03T00:59:43.865Z,102646.19
2023-02-03T01:02:10.615Z,102639.41
2023-02-03T01:04:37.463Z,102642.97
2023-02-03T01:07:04.064Z,102654.47
2023-02-03T01:09:34.879Z,102638.41
2023-02-03T01:12:01.669Z,102648.47
2023-02-03T01:14:31.837Z,102638.59
2023-02-03T01:17:02.827Z,102619.75
2023-02-03T01:19:29.413Z,102632.41
2023-02-03T01:21:56.344Z,102620.88
2023-02-03T01:24:23.357Z,102617.00
2023-02-03T01:26:50.323Z,102616.84
2023-02-03T01:29:17.056Z,102620.72
2023-02-03T01:31:45.192Z,102620.06
2023-02-03T01:34:14.114Z,102611.16
2023-02-03T01:36:40.945Z,102623.84
2023-02-03T01:39:07.774Z,102612.47
2023-02-03T01:41:37.368Z,102602.06
2023-02-03T01:44:42.520Z,102609.22
2023-02-03T01:47:33.541Z,102614.75
2023-02-03T01:50:10.596Z,102605.81
2023-02-03T01:52:39.469Z,102599.47
2023-02-03T01:55:10.418Z,102574.16
2023-02-03T01:57:45.968Z,102560.22
2023-02-03T02:00:16.137Z,102557.75
2023-02-03T02:02:46.435Z,102549.00
2023-02-03T02:05:34.121Z,102550.13
2023-02-03T02:08:02.871Z,102546.56
2023-02-03T02:10:31.128Z,102559.06
2023-02-03T02:12:58.628Z,102578.53
2023-02-03T02:15:50.668Z,102581.63
2023-02-03T02:18:37.439Z,102595.59
2023-02-03T02:21:15.909Z,102587.16
2023-02-03T02:24:13.241Z,102559.25
2023-02-03T02:26:48.724Z,102550.63
2023-02-03T02:29:28.863Z,102573.19
2023-02-03T02:32:21.724Z,102563.28
2023-02-03T02:35:14.296Z,102564.91
2023-02-03T02:37:59.540Z,102560.84
2023-02-03T02:41:14.568Z,102589.91
2023-02-03T02:43:46.147Z,102589.25
2023-02-03T02:46:23.137Z,102585.53
2023-02-03T02:48:59.935Z,102594.44
2023-02-03T02:51:29.407Z,102597.53
2023-02-03T02:54:01.600Z,102604.69
2023-02-03T02:56:31.725Z,102594.75
2023-02-03T02:59:02.082Z,102569.28
2023-02-03T03:01:28.787Z,102582.44
2023-02-03T03:03:56.423Z,102586.31
2023-02-03T03:06:32.404Z,102581.81
2023-02-03T03:09:18.995Z,102569.78
2023-02-03T03:11:51.060Z,102574.81
2023-02-03T03:14:20.282Z,102560.38
2023-02-03T03:16:55.227Z,102542.19
2023-02-03T03:19:28.111Z,102555.66
2023-02-03T03:22:01.272Z,102562.97
2023-02-03T03:24:42.057Z,102550.78
2023-02-03T03:27:17.297Z,102552.41
2023-02-03T03:29:53.236Z,102554.03
2023-02-03T03:32:20.281Z,102548.38
2023-02-03T03:34:47.891Z,102558.59
2023-02-03T03:37:35.575Z,102557.09
2023-02-03T03:40:15.438Z,102552.72
2023-02-03T03:42:50.245Z,102551.94
2023-02-03T03:45:45.856Z,102554.84
2023-02-03T03:48:17.956Z,102559.88
2023-02-03T03:50:52.219Z,102558.91
2023-02-03T03:53:22.047Z,102567.69
2023-02-03T03:55:52.721Z,102562.31
2023-02-03T03:58:27.932Z,102572.22
2023-02-03T04:00:58.346Z,102571.09
2023-02-03T04:03:41.885Z,102569.44
2023-02-03T04:06:08.666Z,102544.47
2023-02-03T04:08:35.295Z,102567.19
2023-02-03T04:11:01.897Z,102558.25
2023-02-03T04:13:28.646Z,102569.13
2023-02-03T04:15:55.236Z,102556.78
2023-02-03T04:18:21.959Z,102572.06
2023-02-03T04:20:48.793Z,102575.28
2023-02-03T04:23:15.538Z,102590.09
2023-02-03T04:25:42.222Z,102579.50
2023-02-03T04:28:09.117Z,102558.25
2023-02-03T04:30:35.837Z,102573.34
2023-02-03T04:33:02.439Z,102582.78
2023-02-03T04:35:29.134Z,102579.50
2023-02-03T04:37:55.716Z,102579.03
2023-02-03T04:40:22.750Z,102580.66
2023-02-03T04:42:49.337Z,102570.25
2023-02-03T04:45:16.054Z,102571.72
2023-02-03T04:47:42.690Z,102580.34
2023-02-03T04:50:09.582Z,102575.47
2023-02-03T04:52:36.296Z,102539.41
2023-02-03T04:55:04.087Z,102567.19
2023-02-03T04:57:30.896Z,102558.59
2023-02-03T04:59:57.536Z,102570.41
2023-02-03T05:02:24.234Z,102563.63
2023-02-03T05:04:50.876Z,102556.81
2023-02-03T05:07:17.470Z,102565.06
2023-02-03T05:09:44.108Z,102562.00
2023-02-03T05:12:10.708Z,102582.09
2023-02-03T05:14:37.295Z,102580.97
2023-02-03T05:17:03.892Z,102573.00
2023-02-03T05:19:30.482Z,102595.41
2023-02-03T05:21:58.203Z,102605.81
2023-02-03T05:24:24.822Z,102600.13
2023-02-03T05:26:51.499Z,102592.50
2023-02-03T05:29:18.296Z,102602.06
2023-02-03T05:31:45.036Z,102591.16
2023-02-03T05:34:11.784Z,102601.22
2023-02-03T05:36:38.425Z,102624.09
2023-02-03T05:39:05.001Z,102604.78
2023-02-03T05:41:50.216Z,102617.78
2023-02-03T05:44:16.842Z,102611.41
2023-02-03T05:46:43.407Z,102617.78
2023-02-03T05:49:09.988Z,102626.69
2023-02-03T05:51:36.648Z,102622.94
2023-02-03T05:54:03.358Z,102614.66
2023-02-03T05:56:29.953Z,102610.28
2023-02-03T05:58:56.622Z,102602.03
2023-02-03T06:01:23.574Z,102618.06
2023-02-03T06:03:50.675Z,102596.50
2023-02-03T06:06:17.783Z,102595.69
2023-02-03T06:08:44.565Z,102589.34
2023-02-03T06:11:12.216Z,102609.78
2023-02-03T06:13:38.971Z,102597.63
2023-02-03T06:16:05.879Z,102610.13
2023-02-03T06:18:32.694Z,102616.44
2023-02-03T06:20:59.421Z,102622.28
2023-02-03T06:23:26.253Z,102635.44
2023-02-03T06:25:52.985Z,102641.13
2023-02-03T06:28:20.219Z,102635.59
2023-02-03T06:30:51.298Z,102649.38
2023-02-03T06:33:17.951Z,102648.25
2023-02-03T06:35:44.511Z,102641.41
2023-02-03T06:38:11.378Z,102637.03
2023-02-03T06:40:38.038Z,102604.09
2023-02-03T06:43:05.067Z,102619.69
2023-02-03T06:45:31.691Z,102634.78
2023-02-03T06:47:58.257Z,102611.09
2023-02-03T06:50:25.071Z,102619.69
2023-02-03T06:52:51.929Z,102613.00
2023-02-03T06:55:18.683Z,102618.88
2023-02-03T06:57:47.433Z,102628.78
2023-02-03T07:00:18.640Z,102625.38
2023-02-03T07:02:46.481Z,102612.38
2023-02-03T07:05:13.453Z,102639.00
2023-02-03T07:07:40.692Z,102631.38
2023-02-03T07:10:08.013Z,102639.47
2023-02-03T07:12:36.636Z,102644.97
2023-02-03T07:15:04.924Z,102633.16
2023-02-03T07:17:31.886Z,102634.59
2023-02-03T07:19:58.955Z,102642.56
2023-02-03T07:22:25.533Z,102630.56
2023-02-03T07:24:52.291Z,102652.63
2023-02-03T07:27:19.957Z,102664.66
2023-02-03T07:29:46.571Z,102675.66
2023-02-03T07:32:13.213Z,102673.19
2023-02-03T07:34:39.900Z,102690.94
2023-02-03T07:37:06.703Z,102676.47
2023-02-03T07:39:34.099Z,102657.97
2023-02-03T07:42:00.650Z,102672.75
2023-02-03T07:44:27.559Z,102680.38
2023-02-03T07:46:54.200Z,102671.41
2023-02-03T07:49:20.892Z,102669.81
2023-02-03T07:51:47.644Z,102664.47
2023-02-03T07:54:15.373Z,102656.31
2023-02-03T07:56:42.965Z,102680.66
2023-02-03T07:59:09.612Z,102687.50
2023-02-03T08:01:36.242Z,102681.13
2023-02-03T08:04:05.418Z,102699.00
2023-02-03T08:06:32.177Z,102691.53
2023-02-03T08:08:58.987Z,102692.66
2023-02-03T08:11:25.649Z,102704.69
2023-02-03T08:13:52.269Z,102712.94
2023-02-03T08:16:19.039Z,102710.34
2023-02-03T08:18:45.684Z,102715.88
2023-02-03T08:21:12.299Z,102730.75
2023-02-03T08:23:38.984Z,102725.25
2023-02-03T08:26:05.795Z,102712.78
2023-02-03T08:28:32.440Z,102710.47
2023-02-03T08:30:59.128Z,102723.94
2023-02-03T08:33:26.004Z,102718.41
2023-02-03T08:35:52.628Z,102738.50
2023-02-03T08:38:19.302Z,102721.63
2023-02-03T08:40:45.933Z,102751.22
2023-02-03T08:43:12.672Z,102745.34
2023-02-03T08:45:40.757Z,102765.81
2023-02-03T08:48:07.380Z,102772.31
2023-02-03T08:50:34.327Z,102768.25
2023-02-03T08:53:00.989Z,102785.78
2023-02-03T08:55:27.697Z,102799.75
2023-02-03T08:57:54.300Z,102790.50
2023-02-03T09:00:21.364Z,102758.34
2023-02-03T09:02:48.085Z,102753.47
2023-02-03T09:05:16.144Z,102779.91
2023-02-03T09:07:42.909Z,102799.88
2023-02-03T09:10:10.049Z,102799.25
2023-02-03T09:12:36.677Z,102804.47
2023-02-03T09:15:03.491Z,102794.69
2023-02-03T09:17:30.152Z,102803.84
2023-02-03T09:19:56.744Z,102784.03
2023-02-03T09:22:23.389Z,102792.91
2023-02-03T09:24:51.415Z,102796.22
2023-02-03T09:27:18.089Z,102773.16
2023-02-03T09:29:44.726Z,102773.22
2023-02-03T09:32:13.650Z,102793.06
2023-02-03T09:34:41.400Z,102793.97
2023-02-03T09:37:08.850Z,102796.72
2023-02-03T09:39:35.621Z,102791.03
2023-02-03T09:42:05.227Z,102800.50
2023-02-03T09:44:37.594Z,102804.25
2023-02-03T09:47:14.014Z,102805.06
2023-02-03T09:49:50.420Z,102809.97
2023-02-03T09:52:23.251Z,102806.88
2023-02-03T09:55:01.360Z,102816.81
2023-02-03T09:57:31.575Z,102824.97
2023-02-03T10:00:02.392Z,102811.63
2023-02-03T10:02:48.742Z,102815.56
2023-02-03T10:05:30.000Z,102807.13
2023-02-03T10:08:02.536Z,102804.53
2023-02-03T10:10:35.133Z,102809.94
2023-02-03T10:13:30.213Z,102800.66
2023-02-03T10:16:01.570Z,102804.53
2023-02-03T10:18:33.255Z,102806.53
2023-02-03T10:21:13.409Z,102790.09
2023-02-03T10:23:43.231Z,102783.94
2023-02-03T10:26:16.939Z,102802.31
2023-02-03T10:29:25.472Z,102812.75
2023-02-03T10:31:57.587Z,102814.88
2023-02-03T10:34:25.838Z,102813.41
2023-02-03T10:36:58.956Z,102804.94
2023-02-03T10:39:48.484Z,102810.16
2023-02-03T10:42:15.728Z,102815.03
2023-02-03T10:44:54.244Z,102798.94
2023-02-03T10:47:26.212Z,102802.69
2023-02-03T10:49:54.770Z,102824.94
2023-02-03T10:52:31.149Z,102813.56
2023-02-03T10:54:59.502Z,102827.53
2023-02-03T10:57:29.269Z,102827.56
2023-02-03T11:00:16.830Z,102831.59
2023-02-03T11:02:43.749Z,102822.34
2023-02-03T11:05:16.476Z,102829.03
2023-02-03T11:07:44.189Z,102834.53
2023-02-03T11:10:31.012Z,102826.56
2023-02-03T11:13:25.095Z,102816.81
2023-02-03T11:16:02.572Z,102819.59
2023-02-03T11:18:48.063Z,102832.91
2023-02-03T11:21:25.549Z,102816.31
2023-02-03T11:24:02.163Z,102838.31
2023-02-03T11:26:44.372Z,102819.59
2023-02-03T11:29:23.845Z,102831.31
2023-02-03T11:31:53.448Z,102828.06
2023-02-03T11:34:26.249Z,102818.44
2023-02-03T11:36:52.876Z,102798.78
2023-02-03T11:39:19.555Z,102789.38
2023-02-03T11:41:47.322Z,102802.72
2023-02-03T11:44:33.912Z,102796.34
2023-02-03T11:47:09.315Z,102797.19
2023-02-03T11:50:17.443Z,102798.47
2023-02-03T11:53:02.201Z,102790.50
2023-02-03T11:55:35.101Z,102800.06
2023-02-03T11:58:24.306Z,102790.81
2023-02-03T12:01:31.797Z,102789.50
2023-02-03T12:03:58.556Z,102801.56
2023-02-03T12:06:43.768Z,102809.84
2023-02-03T12:09:38.540Z,102802.53
2023-02-03T12:12:25.491Z,102798.94
2023-02-03T12:15:16.576Z,102778.63
2023-02-03T12:18:05.655Z,102799.25
2023-02-03T12:20:48.225Z,102799.91
2023-02-03T12:23:35.611Z,102798.31
2023-02-03T12:26:25.412Z,102787.09
2023-02-03T12:28:54.943Z,102804.63
2023-02-03T12:31:48.144Z,102805.78
2023-02-03T12:34:20.280Z,102809.66
2023-02-03T12:37:02.759Z,102807.56
2023-02-03T12:39:55.912Z,102806.25
2023-02-03T12:42:42.324Z,102815.53
2023-02-03T12:45:12.674Z,102817.16
2023-02-03T12:47:51.130Z,102817.50
2023-02-03T12:50:56.243Z,102821.72
2023-02-03T12:53:29.268Z,102826.75
2023-02-03T12:56:07.669Z,102825.28
2023-02-03T12:58:39.770Z,102822.03
2023-02-03T13:01:12.376Z,102827.56
2023-02-03T13:03:51.217Z,102825.78
2023-02-03T13:06:34.963Z,102813.13
2023-02-03T13:09:12.598Z,102826.56
2023-02-03T13:12:00.420Z,102815.34
2023-02-03T13:14:27.043Z,102829.69
2023-02-03T13:17:00.328Z,102844.47
2023-02-03T13:19:36.721Z,102847.56
2023-02-03T13:22:12.570Z,102848.53
2023-02-03T13:24:43.713Z,102848.22
2023-02-03T13:27:46.115Z,102855.88
2023-02-03T13:30:21.763Z,102851.47
2023-02-03T13:33:09.883Z,102853.25
2023-02-03T13:36:14.109Z,102863.66
2023-02-03T13:39:05.830Z,102865.13
2023-02-03T13:41:43.144Z,102864.16
2023-02-03T13:44:16.861Z,102860.25
2023-02-03T13:46:48.879Z,102854.56
2023-02-03T13:49:46.512Z,102850.66
2023-02-03T13:52:38.689Z,102861.53
2023-02-03T13:55:06.984Z,102869.19
2023-02-03T13:57:37.100Z,102855.84
2023-02-03T14:00:28.460Z,102870.97
2023-02-03T14:02:56.790Z,102869.03
2023-02-03T14:05:49.791Z,102867.56
2023-02-03T14:08:25.659Z,102883.50
2023-02-03T14:11:29.976Z,102875.03
2023-02-03T14:14:06.050Z,102869.03
2023-02-03T14:16:58.982Z,102875.84
2023-02-03T14:19:25.768Z,102877.97
2023-02-03T14:21:58.868Z,102877.16
2023-02-03T14:24:32.640Z,102872.63
2023-02-03T14:27:02.664Z,102888.53
2023-02-03T14:29:35.193Z,102893.09
2023-02-03T14:32:08.093Z,102870.00
2023-02-03T14:34:40.948Z,102890.81
2023-02-03T14:37:15.652Z,102891.63
2023-02-03T14:40:22.626Z,102883.31
2023-02-03T14:43:11.477Z,102896.03
2023-02-03T14:45:44.237Z,102891.44
2023-02-03T14:48:32.347Z,102898.44
2023-02-03T14:51:16.949Z,102903.00
2023-02-03T14:53:52.643Z,102896.66
2023-02-03T14:56:57.828Z,102898.13
2023-02-03T14:59:30.000Z,102911.28
2023-02-03T15:01:56.566Z,102899.75
2023-02-03T15:04:24.586Z,102896.31
2023-02-03T15:06:53.174Z,102899.09
2023-02-03T15:09:28.771Z,102909.34
2023-02-03T15:11:55.504Z,102898.59
2023-02-03T15:14:28.178Z,102915.00
2023-02-03T15:17:02.971Z,102913.38
2023-02-03T15:19:38.255Z,102923.47
2023-02-03T15:22:28.227Z,102912.25
2023-02-03T15:25:04.415Z,102915.63
2023-02-03T15:27:32.750Z,102918.91
2023-02-03T15:30:15.998Z,102928.97
2023-02-03T15:32:50.316Z,102915.50
2023-02-03T15:35:19.822Z,102916.31
2023-02-03T15:37:53.691Z,102925.28
2023-02-03T15:40:23.518Z,102932.44
2023-02-03T15:42:57.410Z,102935.22
2023-02-03T15:45:35.917Z,102929.66
2023-02-03T15:48:20.512Z,102941.19
2023-02-03T15:50:57.519Z,102950.16
2023-02-03T15:53:47.178Z,102948.53
2023-02-03T15:56:42.531Z,102948.03
2023-02-03T15:59:33.084Z,102952.06
2023-02-03T16:02:02.513Z,102944.88
2023-02-03T16:04:31.039Z,102929.41
2023-02-03T16:06:58.287Z,102954.13
2023-02-03T16:09:40.158Z,102959.97
2023-02-03T16:12:29.961Z,102962.41
2023-02-03T16:14:58.467Z,102970.22
2023-02-03T16:17:30.142Z,102962.06
2023-02-03T16:20:12.000Z,102965.81
2023-02-03T16:22:47.759Z,102976.84
2023-02-03T16:25:15.553Z,102963.84
2023-02-03T16:27:45.615Z,102989.03
2023-02-03T16:30:31.014Z,102978.63
2023-02-03T16:33:29.190Z,102982.69
2023-02-03T16:36:15.575Z,102984.16
2023-02-03T16:39:09.052Z,102991.28
2023-02-03T16:41:56.469Z,102987.72
2023-02-03T16:44:41.687Z,103009.19
2023-02-03T16:47:46.932Z,102995.03
2023-02-03T16:50:38.525Z,102996.34
2023-02-03T16:53:06.268Z,102999.91
2023-02-03T16:55:33.057Z,102985.56
2023-02-03T16:57:59.905Z,102996.78
2023-02-03T17:00:26.508Z,103002.97
2023-02-03T17:02:53.138Z,103012.41
2023-02-03T17:05:20.284Z,103003.31
2023-02-03T17:07:47.283Z,103010.97
2023-02-03T17:10:14.106Z,103015.16
2023-02-03T17:12:40.828Z,103018.09
2023-02-03T17:15:08.485Z,103025.84
2023-02-03T17:17:35.258Z,103028.75
2023-02-03T17:20:01.899Z,103039.34
2023-02-03T17:22:29.099Z,103060.00
2023-02-03T17:24:55.907Z,103051.84
2023-02-03T17:27:22.537Z,103060.78
2023-02-03T17:29:49.280Z,103058.47
2023-02-03T17:32:17.372Z,103066.91
2023-02-03T17:34:44.669Z,103077.16
2023-02-03T17:37:11.484Z,103073.06
2023-02-03T17:53:19.642Z,103120.09
2023-02-03T17:58:17.794Z,103143.84
2023-02-03T18:00:44.571Z,103155.84
2023-02-03T18:03:11.079Z,103161.56
2023-02-03T18:05:38.978Z,103166.34
2023-02-03T18:08:16.133Z,103175.75
2023-02-03T18:10:43.415Z,103177.19
2023-02-03T18:13:10.103Z,103181.28
2023-02-03T18:15:38.502Z,103187.41
2023-02-03T18:18:05.296Z,103197.50
2023-02-03T18:20:32.049Z,103203.66
2023-02-03T18:22:58.717Z,103208.13
2023-02-03T18:25:25.284Z,103223.97
2023-02-03T18:27:52.367Z,103219.91
2023-02-03T18:30:21.689Z,103226.63
2023-02-03T18:32:52.616Z,103240.41
2023-02-03T18:35:19.479Z,103247.47
2023-02-03T18:37:46.898Z,103263.91
2023-02-03T18:40:13.603Z,103252.34
2023-02-03T18:42:40.213Z,103255.41
2023-02-03T18:45:07.284Z,103253.34
2023-02-03T18:47:34.123Z,103257.78
2023-02-03T18:50:00.907Z,103270.94
2023-02-03T18:52:27.541Z,103255.09
2023-02-03T18:54:54.186Z,103259.47
2023-02-03T18:57:22.602Z,103260.38
2023-02-03T18:59:49.534Z,103263.94
2023-02-03T19:02:16.380Z,103281.13
2023-02-03T19:04:43.351Z,103286.94
2023-02-03T19:07:12.373Z,103279.97
2023-02-03T19:09:40.669Z,103286.59
2023-02-03T19:12:08.154Z,103296.69
2023-02-03T19:14:35.616Z,103298.97
2023-02-03T19:17:03.290Z,103302.31
2023-02-03T19:19:30.048Z,103301.72
2023-02-03T19:21:58.541Z,103298.44
2023-02-03T19:24:26.847Z,103305.88
2023-02-03T19:26:54.074Z,103306.28
2023-02-03T19:29:20.762Z,103308.13
2023-02-03T19:31:47.496Z,103310.06
2023-02-03T19:34:16.057Z,103312.81
2023-02-03T19:36:42.918Z,103311.19
2023-02-03T19:39:10.632Z,103325.47
2023-02-03T19:41:37.233Z,103330.38
2023-02-03T19:44:05.777Z,103324.38
2023-02-03T19:46:37.422Z,103329.78
2023-02-03T19:49:15.278Z,103330.47
2023-02-03T19:51:43.773Z,103328.59
2023-02-03T19:54:15.334Z,103320.13
2023-02-03T19:56:43.375Z,103341.19
2023-02-03T19:59:10.596Z,103349.16
2023-02-03T20:01:37.710Z,103347.22
2023-02-03T20:04:05.217Z,103361.28
2023-02-03T20:06:31.964Z,103367.25
2023-02-03T20:09:01.541Z,103358.84
2023-02-03T20:11:28.427Z,103369.06
2023-02-03T20:13:55.142Z,103370.75
2023-02-03T20:16:21.767Z,103363.53
2023-02-03T20:18:49.322Z,103368.00
2023-02-03T20:21:15.965Z,103348.88
2023-02-03T20:23:42.610Z,103372.31
2023-02-03T20:26:09.365Z,103371.72
2023-02-03T20:28:36.195Z,103376.03
2023-02-03T20:31:03.090Z,103352.69
2023-02-03T20:33:30.999Z,103372.03
2023-02-03T20:35:57.940Z,103369.72
2023-02-03T20:38:24.742Z,103357.72
2023-02-03T20:40:51.673Z,103370.41
2023-02-03T20:43:21.438Z,103372.34
2023-02-03T20:45:49.732Z,103368.00
2023-02-03T20:48:19.869Z,103364.34
2023-02-03T20:50:47.837Z,103367.19
2023-02-03T20:53:17.418Z,103376.44
2023-02-03T20:55:44.061Z,103365.84
2023-02-03T20:58:24.034Z,103370.06
2023-02-03T21:00:51.541Z,103363.91
2023-02-03T21:03:38.398Z,103370.16
2023-02-03T21:06:19.469Z,103367.19
2023-02-03T21:08:47.800Z,103333.22
2023-02-03T21:11:17.461Z,103364.72
2023-02-03T21:13:45.612Z,103358.72
2023-02-03T21:16:19.561Z,103364.13
2023-02-03T21:18:53.286Z,103376.19
2023-02-03T21:21:28.187Z,103379.03
2023-02-03T21:23:55.642Z,103383.53
2023-02-03T21:26:24.781Z,103377.97
2023-02-03T21:29:02.727Z,103371.88
2023-02-03T21:31:31.854Z,103372.34
2023-02-03T21:34:02.749Z,103363.06
2023-02-03T21:36:34.922Z,103377.75
2023-02-03T21:39:02.518Z,103375.06
2023-02-03T21:41:33.611Z,103373.19
2023-02-03T21:44:00.712Z,103353.16
2023-02-03T21:46:32.943Z,103376.47
2023-02-03T21:49:04.219Z,103374.47
2023-02-03T21:51:35.236Z,103363.72
2023-02-03T21:54:06.116Z,103376.38
2023-02-03T21:56:41.856Z,103382.16
2023-02-03T21:59:20.938Z,103357.72
2023-02-03T22:01:47.571Z,103377.84
2023-02-03T22:04:14.342Z,103377.00
2023-02-03T22:06:40.968Z,103375.94
2023-02-03T22:09:12.723Z,103387.72
2023-02-03T22:11:40.918Z,103389.34
2023-02-03T22:14:07.734Z,103398.16
2023-02-03T22:16:34.322Z,103393.22
2023-02-03T22:19:01.022Z,103367.94
2023-02-03T22:21:27.922Z,103385.09
2023-02-03T22:23:54.716Z,103406.47
2023-02-03T22:26:22.286Z,103407.69
2023-02-03T22:28:49.143Z,103412.03
2023-02-03T22:31:16.907Z,103425.78
2023-02-03T22:33:44.004Z,103423.66
2023-02-03T22:36:10.841Z,103409.97
2023-02-03T22:38:38.916Z,103429.47
2023-02-03T22:41:06.549Z,103413.00
2023-02-03T22:43:33.785Z,103426.97
2023-02-03T22:46:01.929Z,103436.84
2023-02-03T22:48:29.258Z,103438.00
2023-02-03T22:50:56.231Z,103442.41
2023-02-03T22:53:22.851Z,103436.81
2023-02-03T22:55:49.458Z,103452.25
2023-02-03T22:58:16.178Z,103441.09
2023-02-03T23:00:42.837Z,103431.78
2023-02-03T23:03:09.645Z,103454.00
2023-02-03T23:05:36.348Z,103453.44
2023-02-03T23:08:03.088Z,103446.56
2023-02-03T23:10:33.753Z,103462.84
2023-02-03T23:13:00.938Z,103461.38
2023-02-03T23:15:28.269Z,103455.34
2023-02-03T23:17:54.944Z,103460.56
2023-02-03T23:20:21.814Z,103462.00
2023-02-03T23:22:48.533Z,103467.13
2023-02-03T23:25:15.150Z,103428.91
2023-02-03T23:27:41.798Z,103466.69
2023-02-03T23:30:09.902Z,103474.69
2023-02-03T23:32:36.586Z,103474.91
2023-02-03T23:35:22.734Z,103483.72
2023-02-03T23:37:49.376Z,103493.34
2023-02-03T23:40:16.229Z,103494.63
2023-02-03T23:42:42.948Z,103486.00
2023-02-03T23:45:12.255Z,103458.38
2023-02-03T23:47:40.750Z,103487.97
2023-02-03T23:50:09.599Z,103446.94
2023-02-03T23:52:36.870Z,103477.59
2023-02-03T23:55:05.650Z,103482.50
2023-02-03T23:57:32.909Z,103459.88
2023-02-03T23:59:59.532Z,103486.00
